Time;durP1;ratioP1;P1;durP2;ratioP2;P2;SDS_P1;SDS_P2;PMS_P1;PMS_P2;Temp;Humidity;BMP_temperature;BMP_pressure;BME280_temperature;BME280_humidity;BME280_pressure;Samples;Min_cycle;Max_cycle;Signal;HPM_P1;HPM_P2
2021/11/26 00:02:20;;;;;;;12.87;5.17;;;;;;;14.44;47.43;100770.44;5053920;28;20071;-73
2021/11/26 00:04:46;;;;;;;14.52;4.78;;;;;;;14.37;47.75;100761.13;5053758;28;20029;-73
2021/11/26 00:07:12;;;;;;;19.55;6.05;;;;;;;14.31;47.93;100745.97;5053427;28;20079;-73
2021/11/26 00:09:37;;;;;;;29.42;10.32;;;;;;;14.23;48.20;100755.91;5053719;28;20431;-73
2021/11/26 00:12:04;;;;;;;21.83;8.38;;;;;;;14.71;47.26;100749.78;5052902;28;20064;-73
2021/11/26 00:14:32;;;;;;;12.75;3.80;;;;;;;14.33;48.70;100743.69;5053651;28;20029;-73
2021/11/26 00:16:59;;;;;;;12.48;5.35;;;;;;;14.55;48.23;100729.59;5053428;28;20037;-73
2021/11/26 00:19:26;;;;;;;8.75;3.65;;;;;;;14.68;47.90;100730.44;5051928;28;20052;-73
2021/11/26 00:21:53;;;;;;;84.90;33.22;;;;;;;14.78;47.71;100709.94;5052340;28;20083;-73
2021/11/26 00:24:19;;;;;;;14.25;4.22;;;;;;;14.78;47.73;100715.44;5053435;28;20056;-73
2021/11/26 00:26:46;;;;;;;14.10;4.55;;;;;;;14.78;47.88;100704.44;5052670;28;20033;-73
2021/11/26 00:29:12;;;;;;;8.63;3.55;;;;;;;14.64;48.52;100696.50;5053303;28;20112;-73
2021/11/26 00:31:38;;;;;;;13.10;4.68;;;;;;;14.51;49.32;100695.69;5053483;28;20032;-73
2021/11/26 00:34:05;;;;;;;7.68;3.40;;;;;;;14.80;48.49;100683.66;5053344;28;20426;-73
2021/11/26 00:36:31;;;;;;;24.73;8.85;;;;;;;14.64;49.11;100671.75;5035342;28;20471;-73
2021/11/26 00:38:57;;;;;;;8.63;3.65;;;;;;;14.93;48.65;100677.03;5053186;28;20029;-72
2021/11/26 00:41:23;;;;;;;38.47;12.82;;;;;;;14.62;49.70;100674.03;5052438;28;20071;-73
2021/11/26 00:43:50;;;;;;;22.77;8.88;;;;;;;14.74;49.63;100654.81;5053027;28;20053;-73
2021/11/26 00:46:16;;;;;;;36.58;12.25;;;;;;;14.72;49.70;100651.59;5053309;28;20386;-73
2021/11/26 00:48:42;;;;;;;7.65;3.25;;;;;;;14.93;48.93;100637.72;5052978;28;20613;-74
2021/11/26 00:51:08;;;;;;;13.25;5.15;;;;;;;14.85;49.70;100620.19;5052935;28;20100;-73
2021/11/26 00:53:34;;;;;;;6.22;2.55;;;;;;;14.83;49.60;100616.19;5052931;28;20120;-73
2021/11/26 00:56:00;;;;;;;19.90;6.60;;;;;;;14.77;50.00;100590.84;5052141;28;20036;-73
2021/11/26 00:58:25;;;;;;;10.90;2.90;;;;;;;14.67;50.19;100583.06;5052853;28;20033;-73
2021/11/26 01:00:51;;;;;;;31.17;11.75;;;;;;;14.99;49.53;100568.38;5052885;28;20463;-73
2021/11/26 01:03:17;;;;;;;10.45;2.30;;;;;;;15.38;48.55;100556.91;5052722;28;20033;-73
2021/11/26 01:05:42;;;;;;;16.15;5.57;;;;;;;14.69;50.54;100553.28;5052627;28;20087;-73
2021/11/26 01:08:08;;;;;;;8.20;2.15;;;;;;;15.01;49.82;100548.75;5052710;28;20094;-73
2021/11/26 01:10:34;;;;;;;6.15;2.53;;;;;;;15.03;50.24;100543.69;5051857;28;20029;-73
2021/11/26 01:12:59;;;;;;;7.03;1.80;;;;;;;14.54;51.40;100520.97;5052580;28;20029;-73
2021/11/26 01:15:28;;;;;;;4.65;1.58;;;;;;;14.69;51.02;100509.28;5052533;28;20115;-73
2021/11/26 01:17:54;;;;;;;6.38;2.45;;;;;;;14.91;50.65;100503.28;5052828;28;20029;-72
2021/11/26 01:20:24;;;;;;;5.38;2.08;;;;;;;15.36;49.26;100491.19;5051625;28;20514;-73
2021/11/26 01:22:50;;;;;;;9.32;2.17;;;;;;;15.06;50.21;100485.22;5052752;28;20029;-72
2021/11/26 01:25:17;;;;;;;6.55;1.70;;;;;;;15.04;50.37;100460.03;5051883;28;20036;-73
2021/11/26 01:27:43;;;;;;;5.47;1.88;;;;;;;15.02;50.98;100461.50;5052428;28;20450;-73
2021/11/26 01:30:14;;;;;;;6.78;2.75;;;;;;;15.38;49.67;100458.59;5052039;28;20116;-73
2021/11/26 01:32:41;;;;;;;5.95;1.77;;;;;;;14.97;50.72;100454.31;5034531;28;20025;-73
2021/11/26 01:35:07;;;;;;;10.70;2.53;;;;;;;15.22;50.78;100447.56;5052302;28;20025;-73
2021/11/26 01:37:33;;;;;;;7.13;2.80;;;;;;;15.28;50.32;100442.59;5052311;28;20028;-73
2021/11/26 01:39:58;;;;;;;3.53;1.80;;;;;;;14.81;52.10;100434.19;5051640;28;20029;-73
2021/11/26 01:42:24;;;;;;;5.40;1.60;;;;;;;14.97;51.55;100418.56;5052120;28;20442;-73
2021/11/26 01:44:49;;;;;;;5.90;1.70;;;;;;;15.15;50.94;100413.53;5030724;28;20400;-73
2021/11/26 01:47:15;;;;;;;4.95;2.05;;;;;;;15.14;51.17;100409.97;5032130;28;20460;-73
2021/11/26 01:49:41;;;;;;;6.50;1.55;;;;;;;15.31;50.79;100395.09;5032278;28;20032;-73
2021/11/26 01:52:06;;;;;;;8.98;2.47;;;;;;;15.42;50.63;100379.66;5032393;28;20391;-73
2021/11/26 01:54:32;;;;;;;6.00;1.80;;;;;;;15.16;51.41;100369.16;5031497;28;20021;-72
2021/11/26 01:56:58;;;;;;;5.47;1.50;;;;;;;15.52;50.22;100359.84;5031303;28;20017;-72
2021/11/26 01:59:23;;;;;;;8.80;1.85;;;;;;;15.25;51.26;100350.50;5032257;28;20033;-73
2021/11/26 02:01:49;;;;;;;4.20;1.90;;;;;;;15.19;51.19;100338.19;5032232;28;20018;-73
2021/11/26 02:04:15;;;;;;;5.82;1.20;;;;;;;15.30;51.16;100323.88;5032175;28;20022;-73
2021/11/26 02:06:41;;;;;;;4.78;1.27;;;;;;;15.09;52.05;100327.69;5032101;28;20029;-73
2021/11/26 02:09:07;;;;;;;3.00;1.10;;;;;;;15.37;50.99;100318.56;5030069;28;20057;-73
2021/11/26 02:11:32;;;;;;;5.05;1.50;;;;;;;15.07;51.95;100312.69;5032109;28;20061;-73
2021/11/26 02:14:01;;;;;;;2.65;1.17;;;;;;;15.63;50.23;100301.50;5032340;28;20022;-73
2021/11/26 02:16:26;;;;;;;3.88;1.20;;;;;;;15.18;51.62;100308.25;5032050;28;20030;-73
2021/11/26 02:18:52;;;;;;;5.47;1.30;;;;;;;15.57;50.35;100302.91;5031939;28;20079;-73
2021/11/26 02:21:20;;;;;;;6.47;1.55;;;;;;;15.32;51.23;100283.03;5032018;28;20021;-73
2021/11/26 02:23:47;;;;;;;6.35;1.83;;;;;;;15.19;51.80;100268.59;5032039;28;20045;-73
2021/11/26 02:26:13;;;;;;;4.82;1.30;;;;;;;15.31;51.24;100260.22;5029860;28;20440;-74
2021/11/26 02:28:41;;;;;;;7.35;2.25;;;;;;;15.36;51.20;100253.66;5031934;28;20045;-73
2021/11/26 02:31:06;;;;;;;6.93;1.50;;;;;;;15.04;52.03;100234.41;5033512;28;20033;-73
2021/11/26 02:33:32;;;;;;;4.45;1.30;;;;;;;15.21;51.10;100228.53;5035600;28;20029;-73
2021/11/26 02:35:58;;;;;;;6.53;1.90;;;;;;;15.32;50.59;100228.78;5035854;28;20034;-72
2021/11/26 02:38:27;;;;;;;7.78;1.63;;;;;;;15.50;50.25;100213.50;5035501;28;20526;-72
2021/11/26 02:40:53;;;;;;;7.72;1.95;;;;;;;15.60;50.46;100203.06;5034992;28;20051;-73
2021/11/26 02:43:19;;;;;;;5.57;1.85;;;;;;;15.62;49.96;100192.53;5035742;28;20425;-74
2021/11/26 02:45:46;;;;;;;10.50;2.38;;;;;;;16.14;48.89;100182.97;5052414;28;20128;-73
2021/11/26 02:48:14;;;;;;;9.43;1.70;;;;;;;15.58;49.92;100178.66;5055273;28;20017;-73
2021/11/26 02:50:40;;;;;;;6.07;2.38;;;;;;;15.76;49.37;100177.09;5055237;28;20029;-73
2021/11/26 02:53:07;;;;;;;5.60;1.90;;;;;;;15.82;48.96;100170.16;5037290;28;20031;-73
2021/11/26 02:55:38;;;;;;;6.03;1.38;;;;;;;15.95;48.90;100165.31;5054527;28;20415;-73
2021/11/26 02:58:05;;;;;;;4.80;2.72;;;;;;;15.83;49.16;100148.91;5037271;28;20025;-73
2021/11/26 03:00:31;;;;;;;9.40;2.75;;;;;;;16.02;48.56;100154.44;5055026;28;20052;-73
2021/11/26 03:02:57;;;;;;;8.07;1.70;;;;;;;16.11;48.56;100154.19;5055028;28;20090;-73
2021/11/26 03:05:23;;;;;;;4.60;1.40;;;;;;;16.06;48.37;100147.00;5037060;28;20100;-73
2021/11/26 03:07:52;;;;;;;4.95;1.42;;;;;;;16.11;48.44;100142.38;5054870;28;20035;-73
2021/11/26 03:10:20;;;;;;;4.18;1.35;;;;;;;15.74;49.67;100123.53;5054152;28;20025;-73
2021/11/26 03:12:48;;;;;;;7.70;1.83;;;;;;;15.71;49.56;100102.22;5054855;28;20021;-73
2021/11/26 03:15:15;;;;;;;9.07;1.60;;;;;;;15.88;49.29;100110.06;5054748;28;20033;-73
2021/11/26 03:17:41;;;;;;;6.05;2.00;;;;;;;15.67;49.93;100104.91;5054745;28;20025;-74
2021/11/26 03:20:07;;;;;;;7.43;1.63;;;;;;;15.51;50.09;100099.44;5054660;28;20472;-72
2021/11/26 03:22:33;;;;;;;6.65;1.60;;;;;;;15.36;50.93;100086.53;5054901;28;20025;-73
2021/11/26 03:24:59;;;;;;;6.10;1.83;;;;;;;15.14;51.58;100073.47;5053740;28;20091;-73
2021/11/26 03:27:24;;;;;;;7.03;1.73;;;;;;;15.41;50.77;100066.97;5054593;28;20103;-72
2021/11/26 03:29:50;;;;;;;5.63;1.40;;;;;;;15.47;50.57;100071.03;5054512;28;20048;-74
2021/11/26 03:32:16;;;;;;;4.95;1.33;;;;;;;14.85;52.15;100058.28;5054485;28;20029;-72
2021/11/26 03:34:41;;;;;;;8.43;2.13;;;;;;;15.63;50.38;100051.69;5054680;28;20079;-72
2021/11/26 03:37:07;;;;;;;6.63;1.80;;;;;;;15.70;50.16;100040.03;5054388;28;20047;-73
2021/11/26 03:39:33;;;;;;;8.73;2.08;;;;;;;15.88;49.60;100032.91;5053583;28;20025;-73
2021/11/26 03:41:59;;;;;;;6.50;1.55;;;;;;;15.70;50.47;100029.03;5053497;28;20078;-73
2021/11/26 03:44:24;;;;;;;5.93;2.00;;;;;;;15.79;50.08;100018.56;5036093;28;20045;-73
2021/11/26 03:46:50;;;;;;;8.35;2.20;;;;;;;15.71;50.42;99997.56;5054131;28;20044;-73
2021/11/26 03:49:15;;;;;;;6.13;1.48;;;;;;;15.49;51.24;100007.34;5054151;28;20040;-72
2021/11/26 03:51:41;;;;;;;7.75;1.63;;;;;;;15.59;50.86;100011.47;5053990;28;20024;-73
2021/11/26 03:54:07;;;;;;;5.88;2.15;;;;;;;15.70;50.91;100006.97;5053543;28;20040;-73
2021/11/26 03:56:32;;;;;;;7.97;1.60;;;;;;;15.32;52.33;100013.28;5053925;28;20399;-73
2021/11/26 03:58:58;;;;;;;3.90;1.20;;;;;;;15.37;52.29;100002.00;5054280;28;20029;-73
2021/11/26 04:01:23;;;;;;;6.88;1.45;;;;;;;15.73;51.23;99998.81;5053999;28;20394;-72
2021/11/26 04:03:49;;;;;;;7.28;1.80;;;;;;;15.75;51.29;99996.47;5053810;28;20028;-73
2021/11/26 04:06:14;;;;;;;4.80;1.65;;;;;;;15.99;50.48;99995.31;5053780;28;20040;-73
2021/11/26 04:08:40;;;;;;;7.13;2.10;;;;;;;16.30;49.81;99988.75;5053253;28;20391;-73
2021/11/26 04:11:05;;;;;;;7.55;1.67;;;;;;;15.86;51.08;99977.38;5053647;28;20033;-73
2021/11/26 04:13:31;;;;;;;6.75;2.17;;;;;;;15.60;52.23;99978.06;5053681;28;20025;-73
2021/11/26 04:16:04;;;;;;;8.25;2.08;;;;;;;15.84;51.73;99971.44;5053910;28;20021;-73
2021/11/26 04:18:33;;;;;;;4.38;1.35;;;;;;;15.98;51.25;99963.44;5053648;28;20025;-73
2021/11/26 04:20:59;;;;;;;6.32;1.77;;;;;;;16.27;50.50;99956.41;5035645;28;20041;-74
2021/11/26 04:23:25;;;;;;;11.32;1.95;;;;;;;16.14;51.18;99951.47;5052786;28;20053;-73
2021/11/26 04:25:51;;;;;;;5.38;1.48;;;;;;;16.28;50.70;99935.16;5053350;28;20079;-73
2021/11/26 04:28:16;;;;;;;5.85;1.25;;;;;;;16.32;50.65;99933.25;5053404;28;20029;-73
2021/11/26 04:30:42;;;;;;;5.72;1.15;;;;;;;16.23;50.83;99922.47;5053389;28;20394;-73
2021/11/26 04:33:07;;;;;;;4.28;2.00;;;;;;;16.25;51.00;99889.84;5053271;28;20391;-73
2021/11/26 04:35:33;;;;;;;4.50;1.48;;;;;;;16.22;50.96;99911.81;5053533;28;20032;-73
2021/11/26 04:37:58;;;;;;;3.63;0.90;;;;;;;16.12;51.29;99917.97;5034869;28;20464;-73
2021/11/26 04:40:24;;;;;;;4.18;1.98;;;;;;;16.09;51.11;99906.50;5053172;28;20029;-73
2021/11/26 04:42:50;;;;;;;4.57;0.93;;;;;;;16.24;50.39;99898.47;5053103;28;20497;-73
2021/11/26 04:45:16;;;;;;;2.05;0.70;;;;;;;16.18;50.77;99897.22;5052787;28;20053;-73
2021/11/26 04:47:42;;;;;;;2.85;0.95;;;;;;;16.49;49.49;99896.09;5035392;28;20112;-73
2021/11/26 04:50:10;;;;;;;3.13;1.73;;;;;;;16.17;50.20;99881.81;5052949;28;20029;-73
2021/11/26 04:52:36;;;;;;;2.03;0.68;;;;;;;16.05;50.85;99882.84;5052915;28;20029;-73
2021/11/26 04:55:04;;;;;;;4.30;0.85;;;;;;;15.93;51.26;99869.25;5052129;28;20154;-73
2021/11/26 04:57:29;;;;;;;3.53;1.00;;;;;;;16.15;50.49;99881.41;5052699;28;20467;-73
2021/11/26 04:59:55;;;;;;;4.55;0.98;;;;;;;16.31;50.06;99876.50;5051567;28;20056;-73
2021/11/26 05:02:21;;;;;;;6.15;1.10;;;;;;;16.38;49.64;99885.69;5052984;28;20070;-73
2021/11/26 05:04:46;;;;;;;5.45;0.80;;;;;;;16.21;50.25;99890.94;5034792;28;20032;-73
2021/11/26 05:07:13;;;;;;;8.13;2.70;;;;;;;16.24;50.08;99890.19;5052673;28;20063;-73
2021/11/26 05:09:39;;;;;;;5.00;1.40;;;;;;;16.41;49.58;99886.13;5051918;28;20025;-73
2021/11/26 05:12:05;;;;;;;4.57;1.75;;;;;;;16.57;48.89;99889.50;5052626;28;20391;-73
2021/11/26 05:14:32;;;;;;;7.13;1.33;;;;;;;16.57;48.74;99887.53;5052621;28;20025;-73
2021/11/26 05:16:57;;;;;;;6.22;1.35;;;;;;;16.61;48.46;99882.84;5052532;28;20025;-73
2021/11/26 05:19:23;;;;;;;7.25;1.67;;;;;;;16.69;48.24;99881.00;5052767;28;20491;-73
2021/11/26 05:21:48;;;;;;;7.88;1.65;;;;;;;16.52;48.54;99885.09;5052457;28;20386;-73
2021/11/26 05:24:14;;;;;;;7.65;2.00;;;;;;;16.45;48.65;99876.72;5051767;28;20031;-72
2021/11/26 05:26:40;;;;;;;16.35;3.78;;;;;;;16.60;48.49;99877.69;5052283;28;20033;-73
2021/11/26 05:29:06;;;;;;;7.55;2.78;;;;;;;16.73;48.21;99876.34;5052389;28;20143;-73
2021/11/26 05:31:36;;;;;;;7.78;1.90;;;;;;;16.55;48.74;99870.56;5052258;28;20095;-73
2021/11/26 05:34:03;;;;;;;9.85;2.33;;;;;;;16.54;48.41;99860.69;5035227;28;20032;-73
2021/11/26 05:36:29;;;;;;;11.95;1.92;;;;;;;16.59;48.07;99865.88;5052502;28;20379;-73
2021/11/26 05:38:54;;;;;;;10.57;2.95;;;;;;;16.76;47.68;99870.06;5051668;28;20021;-73
2021/11/26 05:41:20;;;;;;;9.73;2.30;;;;;;;16.98;47.08;99862.03;5052282;28;20048;-73
2021/11/26 05:43:45;;;;;;;7.32;2.65;;;;;;;17.07;46.54;99857.78;5051971;28;20031;-73
2021/11/26 05:46:11;;;;;;;10.68;2.22;;;;;;;16.95;46.75;99855.31;5052218;28;20067;-73
2021/11/26 05:48:36;;;;;;;10.77;2.40;;;;;;;16.68;47.54;99853.75;5052464;28;20017;-73
2021/11/26 05:51:02;;;;;;;13.25;2.88;;;;;;;16.59;47.69;99852.09;5052405;28;20041;-73
2021/11/26 05:53:28;;;;;;;7.28;2.60;;;;;;;16.70;47.40;99862.47;5051498;28;20379;-73
2021/11/26 05:55:57;;;;;;;13.93;3.05;;;;;;;16.80;46.81;99850.81;5052114;28;20029;-73
2021/11/26 05:58:23;;;;;;;11.27;2.42;;;;;;;16.61;47.31;99855.25;5052286;28;20071;-73
2021/11/26 06:00:48;;;;;;;16.30;3.20;;;;;;;16.92;46.53;99850.53;5052102;28;20029;-73
2021/11/26 06:03:14;;;;;;;18.40;4.68;;;;;;;17.01;46.15;99837.25;5052142;28;20429;-73
2021/11/26 06:05:39;;;;;;;11.15;3.55;;;;;;;17.04;46.54;99835.69;5035144;28;20059;-73
2021/11/26 06:08:05;;;;;;;15.45;3.47;;;;;;;17.01;46.41;99847.50;5055318;28;20070;-73
2021/11/26 06:10:31;;;;;;;19.38;4.10;;;;;;;17.12;46.06;99846.41;5056061;28;20025;-73
2021/11/26 06:12:56;;;;;;;11.50;2.63;;;;;;;17.00;46.25;99848.66;5056079;28;20053;-73
2021/11/26 06:15:23;;;;;;;13.57;3.45;;;;;;;16.82;46.76;99843.72;5056217;28;20394;-73
2021/11/26 06:17:48;;;;;;;13.45;3.28;;;;;;;16.94;46.24;99833.63;5055988;28;20104;-73
2021/11/26 06:20:15;;;;;;;6.55;2.08;;;;;;;16.95;46.04;99843.47;5056047;28;20124;-73
2021/11/26 06:22:41;;;;;;;12.88;3.03;;;;;;;17.10;45.10;99854.28;5055045;28;20031;-73
2021/11/26 06:25:08;;;;;;;10.88;2.65;;;;;;;17.05;45.30;99865.66;5055553;28;20112;-73
2021/11/26 06:27:34;;;;;;;4.68;1.58;;;;;;;16.83;45.27;99858.31;5055984;28;20052;-72
2021/11/26 06:29:59;;;;;;;9.57;2.83;;;;;;;16.95;44.66;99824.16;5055739;28;20033;-72
2021/11/26 06:32:25;;;;;;;6.22;1.95;;;;;;;17.27;43.78;99830.00;5055919;28;20029;-73
2021/11/26 06:34:52;;;;;;;11.63;3.88;;;;;;;17.18;43.89;99842.16;5055712;28;20517;-73
2021/11/26 06:37:18;;;;;;;6.82;1.95;;;;;;;17.19;43.80;99852.00;5054782;28;20100;-73
2021/11/26 06:39:43;;;;;;;10.93;2.47;;;;;;;17.06;43.85;99850.69;5055387;28;20108;-73
2021/11/26 06:42:09;;;;;;;10.63;2.25;;;;;;;17.11;43.84;99864.16;5055707;28;20059;-73
2021/11/26 06:44:36;;;;;;;8.65;1.98;;;;;;;16.94;43.99;99834.41;5031844;28;20468;-73
2021/11/26 06:47:05;;;;;;;10.80;3.22;;;;;;;16.91;43.77;99837.91;5035579;28;20402;-72
2021/11/26 06:49:31;;;;;;;6.70;1.95;;;;;;;16.49;44.07;99838.97;5035340;28;20038;-72
2021/11/26 06:51:57;;;;;;;15.70;2.53;;;;;;;17.08;42.92;99823.53;5034123;28;20030;-73
2021/11/26 06:54:22;;;;;;;11.05;2.33;;;;;;;16.92;43.25;99826.50;5034584;28;20112;-73
2021/11/26 06:56:48;;;;;;;8.23;2.83;;;;;;;17.08;42.49;99826.28;5035255;28;20025;-73
2021/11/26 06:59:14;;;;;;;7.18;1.92;;;;;;;16.79;42.94;99825.19;5033823;28;20851;-73
2021/11/26 07:01:40;;;;;;;12.52;2.63;;;;;;;16.62;43.08;99843.09;5033824;28;20021;-73
2021/11/26 07:04:08;;;;;;;11.35;3.10;;;;;;;16.77;42.63;99823.94;5035011;28;20026;-73
2021/11/26 07:06:34;;;;;;;9.02;2.38;;;;;;;16.26;43.55;99839.06;5035046;28;20021;-73
2021/11/26 07:09:00;;;;;;;9.80;2.28;;;;;;;16.20;43.48;99834.25;5034229;28;20551;-73
2021/11/26 07:11:26;;;;;;;11.77;2.60;;;;;;;16.28;43.03;99822.16;5033790;28;20060;-73
2021/11/26 07:13:51;;;;;;;8.23;2.38;;;;;;;16.58;42.44;99820.16;5034932;28;20096;-72
2021/11/26 07:16:18;;;;;;;11.63;2.72;;;;;;;16.48;42.46;99823.59;5034605;28;20137;-73
2021/11/26 07:18:43;;;;;;;14.55;2.83;;;;;;;16.09;42.80;99821.09;5033858;28;20029;-72
2021/11/26 07:21:09;;;;;;;12.23;3.15;;;;;;;16.25;42.46;99831.97;5035011;28;20029;-73
2021/11/26 07:23:35;;;;;;;12.70;2.85;;;;;;;16.23;42.29;99822.47;5034260;28;20472;-73
2021/11/26 07:26:00;;;;;;;8.07;2.42;;;;;;;16.23;42.07;99830.72;5034673;28;20021;-73
2021/11/26 07:28:26;;;;;;;10.20;2.72;;;;;;;16.04;42.39;99837.16;5034905;28;20056;-73
2021/11/26 07:30:52;;;;;;;8.88;2.53;;;;;;;16.12;42.10;99824.28;5034832;28;20405;-73
2021/11/26 07:33:17;;;;;;;7.47;2.60;;;;;;;16.12;41.73;99829.81;5034601;28;20108;-73
2021/11/26 07:35:43;;;;;;;10.48;2.70;;;;;;;15.84;41.73;99835.66;5034745;28;20053;-73
2021/11/26 07:38:09;;;;;;;10.05;2.88;;;;;;;15.98;41.15;99850.47;5033751;28;20480;-72
2021/11/26 07:40:34;;;;;;;15.48;3.67;;;;;;;15.99;41.16;99838.28;5034650;28;20079;-72
2021/11/26 07:43:00;;;;;;;11.48;2.67;;;;;;;15.99;40.73;99838.28;5034399;28;20076;-72
2021/11/26 07:45:25;;;;;;;11.27;3.03;;;;;;;15.78;40.88;99843.44;5046586;28;20041;-72
2021/11/26 07:47:52;;;;;;;8.32;2.58;;;;;;;16.07;40.37;99845.47;5054221;28;20025;-73
2021/11/26 07:50:18;;;;;;;7.65;1.73;;;;;;;15.99;40.21;99859.53;5054168;28;20067;-72
2021/11/26 07:52:44;;;;;;;16.67;4.93;;;;;;;15.88;40.09;99844.81;5053434;28;20398;-72
2021/11/26 07:55:11;;;;;;;10.25;3.45;;;;;;;15.92;40.03;99859.41;5054311;28;20032;-71
2021/11/26 07:57:37;;;;;;;11.82;3.42;;;;;;;15.91;39.89;99853.09;5053950;28;20056;-72
2021/11/26 08:00:05;;;;;;;12.25;3.30;;;;;;;15.64;40.45;99856.97;5054190;28;20056;-72
2021/11/26 08:02:30;;;;;;;9.30;2.30;;;;;;;15.84;40.42;99857.72;5053976;28;20463;-72
2021/11/26 08:04:56;;;;;;;13.30;3.92;;;;;;;15.85;40.19;99846.31;5053900;28;20040;-72
2021/11/26 08:07:21;;;;;;;11.93;2.45;;;;;;;15.97;39.90;99851.63;5053089;28;20053;-72
2021/11/26 08:09:47;;;;;;;6.28;2.42;;;;;;;15.74;40.53;99854.41;5053805;28;20051;-72
2021/11/26 08:12:13;;;;;;;11.18;2.75;;;;;;;16.00;39.56;99861.91;5035881;28;20394;-71
2021/11/26 08:14:38;;;;;;;11.70;2.78;;;;;;;15.76;40.16;99846.56;5053413;28;20025;-71
2021/11/26 08:17:04;;;;;;;13.68;3.35;;;;;;;15.68;40.06;99852.34;5054008;28;20033;-72
2021/11/26 08:19:29;;;;;;;14.40;4.43;;;;;;;15.71;40.10;99843.34;5053602;28;20050;-72
2021/11/26 08:21:56;;;;;;;11.13;3.15;;;;;;;15.76;39.66;99851.28;5052839;28;20116;-72
2021/11/26 08:24:23;;;;;;;11.05;3.28;;;;;;;15.49;40.40;99858.66;5053556;28;20059;-73
2021/11/26 08:26:49;;;;;;;12.18;3.53;;;;;;;15.57;39.49;99854.91;5053350;28;20025;-74
2021/11/26 08:29:15;;;;;;;11.40;3.50;;;;;;;15.89;39.11;99854.66;5050627;28;20498;-73
2021/11/26 08:31:41;;;;;;;9.77;3.05;;;;;;;15.86;39.12;99855.38;5052672;28;20029;-73
2021/11/26 08:34:07;;;;;;;13.57;3.40;;;;;;;15.70;38.96;99830.72;5053048;28;20035;-73
2021/11/26 08:36:32;;;;;;;15.15;4.32;;;;;;;15.73;38.83;99841.03;5052963;28;20029;-74
2021/11/26 08:38:58;;;;;;;17.38;3.63;;;;;;;15.93;38.19;99839.75;5053489;28;20052;-73
2021/11/26 08:41:25;;;;;;;15.93;4.55;;;;;;;15.85;38.74;99870.31;5053268;28;20021;-72
2021/11/26 08:43:52;;;;;;;13.27;4.47;;;;;;;15.57;38.87;99873.34;5035253;28;20123;-73
2021/11/26 08:46:18;;;;;;;14.80;3.58;;;;;;;15.82;38.58;99867.13;5052964;28;20483;-73
2021/11/26 08:48:44;;;;;;;8.88;2.35;;;;;;;15.68;38.91;99860.59;5053096;28;20029;-72
2021/11/26 08:51:10;;;;;;;16.08;3.72;;;;;;;15.88;38.44;99864.09;5053018;28;20032;-73
2021/11/26 08:53:39;;;;;;;12.40;3.17;;;;;;;15.94;38.53;99868.88;5035224;28;20068;-73
2021/11/26 08:56:05;;;;;;;11.43;3.28;;;;;;;15.83;38.78;99859.66;5035109;28;20113;-73
2021/11/26 08:58:34;;;;;;;11.20;2.58;;;;;;;15.39;39.27;99873.06;5053141;28;20044;-72
2021/11/26 09:01:00;;;;;;;16.00;2.95;;;;;;;15.76;39.04;99873.31;5052908;28;20541;-73
2021/11/26 09:03:25;;;;;;;17.10;3.40;;;;;;;15.62;39.19;99870.34;5029906;28;20045;-73
2021/11/26 09:05:51;;;;;;;8.52;3.10;;;;;;;15.97;38.19;99873.66;5038328;28;20035;-72
2021/11/26 09:08:18;;;;;;;13.05;3.35;;;;;;;16.01;38.24;99880.00;5052576;28;20099;-72
2021/11/26 09:10:46;;;;;;;16.38;3.58;;;;;;;15.88;38.80;99873.13;5052706;28;20037;-72
2021/11/26 09:13:13;;;;;;;8.80;3.38;;;;;;;16.01;38.62;99876.47;5052438;28;20029;-72
2021/11/26 09:15:39;;;;;;;11.70;2.83;;;;;;;15.85;38.67;99881.34;5021871;28;20174;-73
2021/11/26 09:18:09;;;;;;;15.05;3.33;;;;;;;16.16;38.13;99891.25;5036366;28;20032;-73
2021/11/26 09:20:36;;;;;;;;;;;;;;;15.64;38.84;99882.59;5019899;28;20434;-73
2021/11/26 09:23:03;;;;;;;18.02;3.90;;;;;;;16.14;38.15;99883.38;5036664;28;19924;-73
2021/11/26 09:25:28;;;;;;;14.88;3.20;;;;;;;16.24;37.89;99899.25;5036161;28;20037;-73
2021/11/26 09:27:54;;;;;;;13.80;3.05;;;;;;;16.04;38.35;99879.28;5036419;28;20036;-73
2021/11/26 09:30:22;;;;;;;11.02;3.65;;;;;;;16.26;38.23;99896.16;5036700;28;20012;-73
2021/11/26 09:32:48;;;;;;;21.17;4.20;;;;;;;16.15;38.35;99873.13;5036542;28;20426;-73
2021/11/26 09:35:14;;;;;;;13.55;3.63;;;;;;;16.18;38.09;99886.19;5036382;28;20395;-73
2021/11/26 09:37:40;;;;;;;26.67;5.47;;;;;;;16.52;37.90;99884.28;5036016;28;20054;-73
2021/11/26 09:40:09;;;;;;;33.85;5.45;;;;;;;16.20;38.22;99881.09;5035526;28;20068;-73
2021/11/26 09:42:35;;;;;;;11.73;3.70;;;;;;;16.08;38.42;99871.84;5019507;28;20029;-72
2021/11/26 09:45:00;;;;;;;19.65;3.90;;;;;;;16.06;38.20;99859.63;5016180;28;20053;-73
2021/11/26 09:47:28;;;;;;;13.02;5.90;;;;;;;16.05;38.12;99856.06;4998151;28;20048;-73
2021/11/26 09:49:55;;;;;;;38.17;19.60;;;;;;;16.25;38.00;99851.25;5016156;28;20026;-73
2021/11/26 09:52:21;;;;;;;12.43;3.38;;;;;;;16.32;37.94;99853.28;5016344;28;20044;-73
2021/11/26 09:54:47;;;;;;;12.27;3.47;;;;;;;15.77;38.63;99874.91;5017526;28;20025;-72
2021/11/26 09:57:14;;;;;;;11.15;3.05;;;;;;;16.31;37.88;99846.97;5016546;28;20021;-72
2021/11/26 09:59:42;;;;;;;12.40;3.08;;;;;;;16.47;37.60;99873.59;5016421;28;20026;-73
2021/11/26 10:02:09;;;;;;;17.77;4.82;;;;;;;15.99;38.64;99859.53;4998797;28;20543;-73
2021/11/26 10:04:34;;;;;;;10.63;3.10;;;;;;;16.44;37.59;99855.84;5016429;28;20470;-73
2021/11/26 10:07:04;;;;;;;16.48;3.75;;;;;;;16.13;38.50;99864.44;5016402;28;20029;-73
2021/11/26 10:09:33;;;;;;;13.15;3.90;;;;;;;15.96;38.72;99850.03;5016601;28;20030;-73
2021/11/26 10:12:05;;;;;;;8.37;3.13;;;;;;;15.98;38.99;99852.41;5015379;28;20611;-73
2021/11/26 10:14:37;;;;;;;14.25;3.17;;;;;;;16.06;38.61;99852.16;5035823;28;20277;-73
2021/11/26 10:17:14;;;;;;;10.23;3.35;;;;;;;16.03;38.84;99852.13;5018808;28;20043;-72
2021/11/26 10:19:56;;;;;;;15.60;5.80;;;;;;;16.00;39.08;99853.63;5042202;28;20478;-73
2021/11/26 10:22:21;;;;;;;11.13;2.83;;;;;;;15.95;39.33;99858.69;5038119;28;20026;-72
2021/11/26 10:25:15;;;;;;;12.10;3.10;;;;;;;15.97;39.44;99851.63;5031803;28;20032;-74
2021/11/26 10:27:49;;;;;;;11.70;3.03;;;;;;;16.19;38.87;99874.78;5031929;28;20034;-72
2021/11/26 10:30:19;;;;;;;8.45;2.75;;;;;;;15.95;38.93;99873.25;5031720;28;20392;-74
2021/11/26 10:33:00;;;;;;;12.10;3.13;;;;;;;16.07;38.74;99878.53;5033907;28;20022;-73
2021/11/26 10:35:32;;;;;;;13.32;3.25;;;;;;;16.11;39.12;99850.25;5034654;28;20140;-73
2021/11/26 10:38:29;;;;;;;10.02;2.83;;;;;;;15.83;39.36;99873.44;5035959;28;20086;-73
2021/11/26 10:40:57;;;;;;;12.18;2.97;;;;;;;15.87;39.71;99854.19;5034249;28;20045;-73
2021/11/26 10:43:55;;;;;;;18.75;3.75;;;;;;;15.74;39.87;99868.19;5035955;28;20033;-73
2021/11/26 11:00:03;;;;;;;14.45;3.15;;;;;;;16.01;39.48;99857.19;5055471;28;20037;-71
2021/11/26 11:02:36;;;;;;;6.65;3.03;;;;;;;16.00;39.34;99856.38;5054961;28;20054;-71
2021/11/26 11:05:07;;;;;;;9.48;2.95;;;;;;;16.44;38.68;99858.59;5055072;28;20021;-71
2021/11/26 11:07:44;;;;;;;7.30;2.35;;;;;;;16.35;38.38;99842.31;5055072;28;20032;-72
2021/11/26 11:10:14;;;;;;;5.90;1.70;;;;;;;16.16;39.09;99842.44;5054781;28;20036;-71
2021/11/26 11:12:39;;;;;;;5.00;2.25;;;;;;;16.22;38.99;99842.91;5054894;28;20029;-71
2021/11/26 11:15:10;;;;;;;10.18;1.65;;;;;;;15.89;39.17;99836.16;5055058;28;20032;-71
2021/11/26 11:17:36;;;;;;;7.57;3.47;;;;;;;16.27;38.53;99848.91;5037033;28;20025;-73
2021/11/26 11:20:07;;;;;;;5.35;2.42;;;;;;;15.78;38.81;99846.19;5054833;28;20089;-73
2021/11/26 11:22:33;;;;;;;11.18;3.17;;;;;;;16.02;38.65;99843.06;5054774;28;20029;-73
2021/11/26 11:24:59;;;;;;;7.32;1.98;;;;;;;16.17;38.22;99837.72;5054675;28;20029;-72
2021/11/26 11:27:25;;;;;;;6.63;1.45;;;;;;;16.06;38.29;99840.34;5054494;28;20025;-73
2021/11/26 11:29:50;;;;;;;8.30;2.03;;;;;;;15.53;39.30;99843.81;5054542;28;20151;-72
2021/11/26 11:32:18;;;;;;;5.15;1.20;;;;;;;15.61;38.92;99846.69;5054175;28;20029;-72
2021/11/26 11:34:46;;;;;;;5.32;1.65;;;;;;;15.08;39.86;99849.28;5054424;28;20025;-72
2021/11/26 11:37:17;;;;;;;5.68;1.85;;;;;;;15.11;39.67;99854.84;5054605;28;20486;-72
2021/11/26 11:39:50;;;;;;;4.80;1.80;;;;;;;15.39;39.51;99853.78;5054488;28;20498;-72